Mount Judea, Arkansas
Current Conditions -  °F | °C
As of 7:53 AM on Wednesday 26 Nov 2014 (Local Time) from KHRO Reporting Station
Overcast Overcast  
Wind Chill: 42°   Ceiling: 8500
Heat Index: 45°   Visibility: 10mi
Dew Point: 27°   Wind: 6mph
Humidity: 49%   Direction: 210°SSW
Pressure: 29.96"   Gusts: NA
Location:  35.92°N, 93.06°W
Report Text: KHRO 261353Z AUTO 21005KT 10SM OVC085 07/M03 A2996 RMK AO2 SLP150 T00721028
Loading
Personal Weather Stations






























Interactive Weather Map New forecast layout! Learn more

10-Day Weather Forecast

Advertisements
Track Severe Weather on mobile